sensor_id;sensor_type;location;lat;lon;timestamp;P1;durP1;ratioP1;P2;durP2;ratioP2
14663;SDS011;7419;52.184;5.944;2023-04-01T00:03:39;3.00;;;0.53;;
14663;SDS011;7419;52.184;5.944;2023-04-01T00:03:55;0.73;;;0.17;;
14663;SDS011;7419;52.184;5.944;2023-04-01T00:04:55;0.22;;;0.17;;
14663;SDS011;7419;52.184;5.944;2023-04-01T00:05:56;0.90;;;0.32;;
14663;SDS011;7419;52.184;5.944;2023-04-01T00:06:55;0.68;;;0.33;;
14663;SDS011;7419;52.184;5.944;2023-04-01T00:07:55;0.21;;;0.21;;
14663;SDS011;7419;52.184;5.944;2023-04-01T00:08:56;0.28;;;0.21;;
14663;SDS011;7419;52.184;5.944;2023-04-01T00:09:56;0.13;;;0.13;;
14663;SDS011;7419;52.184;5.944;2023-04-01T00:10:56;0.33;;;0.33;;
14663;SDS011;7419;52.184;5.944;2023-04-01T00:11:56;0.42;;;0.42;;
14663;SDS011;7419;52.184;5.944;2023-04-01T00:12:56;1.46;;;0.24;;
14663;SDS011;7419;52.184;5.944;2023-04-01T00:13:56;0.38;;;0.38;;
14663;SDS011;7419;52.184;5.944;2023-04-01T00:14:56;0.38;;;0.14;;
14663;SDS011;7419;52.184;5.944;2023-04-01T00:15:56;1.14;;;0.24;;
14663;SDS011;7419;52.184;5.944;2023-04-01T00:16:56;0.78;;;0.18;;
14663;SDS011;7419;52.184;5.944;2023-04-01T00:17:56;0.14;;;0.13;;
14663;SDS011;7419;52.184;5.944;2023-04-01T00:18:56;0.68;;;0.23;;
14663;SDS011;7419;52.184;5.944;2023-04-01T00:19:56;0.40;;;0.25;;
14663;SDS011;7419;52.184;5.944;2023-04-01T00:20:56;0.23;;;0.22;;
14663;SDS011;7419;52.184;5.944;2023-04-01T00:21:56;0.14;;;0.14;;
14663;SDS011;7419;52.184;5.944;2023-04-01T00:22:56;0.40;;;0.20;;
14663;SDS011;7419;52.184;5.944;2023-04-01T00:23:57;0.86;;;0.60;;
14663;SDS011;7419;52.184;5.944;2023-04-01T00:24:57;0.24;;;0.23;;
14663;SDS011;7419;52.184;5.944;2023-04-01T00:25:58;0.27;;;0.26;;
14663;SDS011;7419;52.184;5.944;2023-04-01T00:26:57;0.25;;;0.24;;
14663;SDS011;7419;52.184;5.944;2023-04-01T00:27:57;0.28;;;0.28;;
14663;SDS011;7419;52.184;5.944;2023-04-01T00:28:58;0.27;;;0.22;;
14663;SDS011;7419;52.184;5.944;2023-04-01T00:29:57;1.50;;;0.30;;
14663;SDS011;7419;52.184;5.944;2023-04-01T00:30:57;0.60;;;0.48;;
14663;SDS011;7419;52.184;5.944;2023-04-01T00:31:57;0.40;;;0.29;;
14663;SDS011;7419;52.184;5.944;2023-04-01T00:32:57;0.44;;;0.37;;
14663;SDS011;7419;52.184;5.944;2023-04-01T00:33:57;0.36;;;0.25;;
14663;SDS011;7419;52.184;5.944;2023-04-01T00:34:57;1.32;;;0.60;;
14663;SDS011;7419;52.184;5.944;2023-04-01T00:36:04;0.99;;;0.51;;
14663;SDS011;7419;52.184;5.944;2023-04-01T00:36:57;1.16;;;0.59;;
14663;SDS011;7419;52.184;5.944;2023-04-01T00:37:57;0.70;;;0.66;;
14663;SDS011;7419;52.184;5.944;2023-04-01T00:38:58;0.73;;;0.45;;
14663;SDS011;7419;52.184;5.944;2023-04-01T00:39:58;1.12;;;0.43;;
14663;SDS011;7419;52.184;5.944;2023-04-01T00:40:58;2.49;;;0.58;;
14663;SDS011;7419;52.184;5.944;2023-04-01T00:41:58;0.26;;;0.26;;
14663;SDS011;7419;52.184;5.944;2023-04-01T00:42:58;1.88;;;0.62;;
14663;SDS011;7419;52.184;5.944;2023-04-01T00:44:15;0.99;;;0.72;;
14663;SDS011;7419;52.184;5.944;2023-04-01T00:44:58;0.61;;;0.57;;
14663;SDS011;7419;52.184;5.944;2023-04-01T00:45:58;0.95;;;0.45;;
14663;SDS011;7419;52.184;5.944;2023-04-01T00:46:58;1.35;;;0.63;;
14663;SDS011;7419;52.184;5.944;2023-04-01T00:47:58;0.84;;;0.44;;
14663;SDS011;7419;52.184;5.944;2023-04-01T00:48:58;1.50;;;0.59;;
14663;SDS011;7419;52.184;5.944;2023-04-01T00:49:58;0.51;;;0.48;;
14663;SDS011;7419;52.184;5.944;2023-04-01T00:50:59;1.33;;;0.79;;
14663;SDS011;7419;52.184;5.944;2023-04-01T00:51:59;0.64;;;0.63;;
14663;SDS011;7419;52.184;5.944;2023-04-01T00:52:59;0.90;;;0.61;;
14663;SDS011;7419;52.184;5.944;2023-04-01T00:53:59;1.01;;;0.45;;
14663;SDS011;7419;52.184;5.944;2023-04-01T00:54:58;0.62;;;0.62;;
14663;SDS011;7419;52.184;5.944;2023-04-01T00:56:00;2.06;;;1.02;;
14663;SDS011;7419;52.184;5.944;2023-04-01T00:56:59;0.87;;;0.44;;
14663;SDS011;7419;52.184;5.944;2023-04-01T00:57:58;0.76;;;0.76;;
14663;SDS011;7419;52.184;5.944;2023-04-01T00:59:00;1.55;;;0.77;;
14663;SDS011;7419;52.184;5.944;2023-04-01T00:59:59;0.66;;;0.44;;
14663;SDS011;7419;52.184;5.944;2023-04-01T01:00:59;0.95;;;0.85;;
14663;SDS011;7419;52.184;5.944;2023-04-01T01:01:59;2.04;;;0.56;;
14663;SDS011;7419;52.184;5.944;2023-04-01T01:02:59;1.86;;;0.73;;
14663;SDS011;7419;52.184;5.944;2023-04-01T01:03:59;0.96;;;0.67;;
14663;SDS011;7419;52.184;5.944;2023-04-01T01:04:59;0.65;;;0.61;;
14663;SDS011;7419;52.184;5.944;2023-04-01T01:06:05;1.82;;;0.79;;
14663;SDS011;7419;52.184;5.944;2023-04-01T01:07:03;1.40;;;0.80;;
14663;SDS011;7419;52.184;5.944;2023-04-01T01:08:01;1.68;;;0.77;;
14663;SDS011;7419;52.184;5.944;2023-04-01T01:09:02;0.90;;;0.72;;
14663;SDS011;7419;52.184;5.944;2023-04-01T01:10:01;0.98;;;0.63;;
14663;SDS011;7419;52.184;5.944;2023-04-01T01:10:59;1.93;;;0.85;;
14663;SDS011;7419;52.184;5.944;2023-04-01T01:12:02;0.83;;;0.71;;
14663;SDS011;7419;52.184;5.944;2023-04-01T01:13:01;1.16;;;1.00;;
14663;SDS011;7419;52.184;5.944;2023-04-01T01:14:01;1.07;;;0.77;;
14663;SDS011;7419;52.184;5.944;2023-04-01T01:15:01;1.29;;;0.81;;
14663;SDS011;7419;52.184;5.944;2023-04-01T01:16:00;2.82;;;1.12;;
14663;SDS011;7419;52.184;5.944;2023-04-01T01:17:02;1.62;;;0.99;;
14663;SDS011;7419;52.184;5.944;2023-04-01T01:18:01;5.08;;;0.88;;
14663;SDS011;7419;52.184;5.944;2023-04-01T01:19:02;1.06;;;1.02;;
14663;SDS011;7419;52.184;5.944;2023-04-01T01:20:08;1.18;;;1.02;;
14663;SDS011;7419;52.184;5.944;2023-04-01T01:21:05;1.01;;;0.90;;
14663;SDS011;7419;52.184;5.944;2023-04-01T01:22:03;1.17;;;1.05;;
14663;SDS011;7419;52.184;5.944;2023-04-01T01:23:06;1.35;;;1.01;;
14663;SDS011;7419;52.184;5.944;2023-04-01T01:24:18;0.84;;;0.74;;
14663;SDS011;7419;52.184;5.944;2023-04-01T01:25:05;1.01;;;1.01;;
14663;SDS011;7419;52.184;5.944;2023-04-01T01:26:07;2.81;;;1.13;;
14663;SDS011;7419;52.184;5.944;2023-04-01T01:27:02;1.46;;;0.76;;
14663;SDS011;7419;52.184;5.944;2023-04-01T01:28:05;0.75;;;0.75;;
14663;SDS011;7419;52.184;5.944;2023-04-01T01:29:02;1.26;;;0.95;;
14663;SDS011;7419;52.184;5.944;2023-04-01T01:30:09;0.96;;;0.64;;
14663;SDS011;7419;52.184;5.944;2023-04-01T01:31:02;2.38;;;0.82;;
14663;SDS011;7419;52.184;5.944;2023-04-01T01:32:03;0.88;;;0.84;;
14663;SDS011;7419;52.184;5.944;2023-04-01T01:33:05;1.53;;;0.72;;
14663;SDS011;7419;52.184;5.944;2023-04-01T01:34:03;1.45;;;0.86;;
14663;SDS011;7419;52.184;5.944;2023-04-01T01:35:07;1.24;;;1.01;;
14663;SDS011;7419;52.184;5.944;2023-04-01T01:36:02;0.74;;;0.62;;
14663;SDS011;7419;52.184;5.944;2023-04-01T01:37:01;0.77;;;0.55;;
14663;SDS011;7419;52.184;5.944;2023-04-01T01:38:02;1.35;;;0.98;;
14663;SDS011;7419;52.184;5.944;2023-04-01T01:39:01;1.34;;;0.78;;
14663;SDS011;7419;52.184;5.944;2023-04-01T01:40:02;1.71;;;0.83;;
14663;SDS011;7419;52.184;5.944;2023-04-01T01:41:01;1.31;;;0.69;;
14663;SDS011;7419;52.184;5.944;2023-04-01T01:42:02;0.90;;;0.89;;
14663;SDS011;7419;52.184;5.944;2023-04-01T01:43:03;0.68;;;0.68;;
14663;SDS011;7419;52.184;5.944;2023-04-01T01:44:01;0.90;;;0.84;;
14663;SDS011;7419;52.184;5.944;2023-04-01T01:45:03;0.64;;;0.56;;
14663;SDS011;7419;52.184;5.944;2023-04-01T01:46:03;1.32;;;0.93;;
14663;SDS011;7419;52.184;5.944;2023-04-01T01:47:01;1.72;;;0.99;;
14663;SDS011;7419;52.184;5.944;2023-04-01T01:48:02;1.54;;;0.92;;
14663;SDS011;7419;52.184;5.944;2023-04-01T01:49:02;1.49;;;1.14;;
14663;SDS011;7419;52.184;5.944;2023-04-01T01:50:03;0.99;;;0.92;;
14663;SDS011;7419;52.184;5.944;2023-04-01T01:51:02;0.84;;;0.76;;
14663;SDS011;7419;52.184;5.944;2023-04-01T01:52:02;1.44;;;0.85;;
14663;SDS011;7419;52.184;5.944;2023-04-01T01:53:03;1.03;;;0.95;;
14663;SDS011;7419;52.184;5.944;2023-04-01T01:54:02;1.36;;;0.99;;
14663;SDS011;7419;52.184;5.944;2023-04-01T01:55:03;1.29;;;1.19;;
14663;SDS011;7419;52.184;5.944;2023-04-01T01:56:02;1.66;;;1.48;;
14663;SDS011;7419;52.184;5.944;2023-04-01T01:57:04;2.46;;;1.40;;
14663;SDS011;7419;52.184;5.944;2023-04-01T01:58:04;1.90;;;1.18;;
14663;SDS011;7419;52.184;5.944;2023-04-01T01:59:03;2.02;;;1.38;;
14663;SDS011;7419;52.184;5.944;2023-04-01T02:00:06;2.92;;;1.64;;
14663;SDS011;7419;52.184;5.944;2023-04-01T02:01:03;1.68;;;1.40;;
14663;SDS011;7419;52.184;5.944;2023-04-01T02:02:04;3.76;;;1.25;;
14663;SDS011;7419;52.184;5.944;2023-04-01T02:03:02;3.12;;;1.85;;
14663;SDS011;7419;52.184;5.944;2023-04-01T02:04:02;5.65;;;1.92;;
14663;SDS011;7419;52.184;5.944;2023-04-01T02:05:03;4.79;;;1.76;;
14663;SDS011;7419;52.184;5.944;2023-04-01T02:06:04;2.20;;;1.36;;
14663;SDS011;7419;52.184;5.944;2023-04-01T02:07:03;4.49;;;1.57;;
14663;SDS011;7419;52.184;5.944;2023-04-01T02:08:04;3.26;;;1.68;;
14663;SDS011;7419;52.184;5.944;2023-04-01T02:09:03;2.39;;;1.54;;
14663;SDS011;7419;52.184;5.944;2023-04-01T02:10:03;4.11;;;1.91;;
14663;SDS011;7419;52.184;5.944;2023-04-01T02:11:04;2.22;;;1.79;;
14663;SDS011;7419;52.184;5.944;2023-04-01T02:12:03;1.63;;;1.42;;
14663;SDS011;7419;52.184;5.944;2023-04-01T02:13:05;3.82;;;1.93;;
14663;SDS011;7419;52.184;5.944;2023-04-01T02:14:04;3.93;;;1.94;;
14663;SDS011;7419;52.184;5.944;2023-04-01T02:15:04;5.07;;;1.98;;
14663;SDS011;7419;52.184;5.944;2023-04-01T02:16:05;2.81;;;1.76;;
14663;SDS011;7419;52.184;5.944;2023-04-01T02:17:04;3.02;;;1.69;;
14663;SDS011;7419;52.184;5.944;2023-04-01T02:18:03;3.96;;;1.40;;
14663;SDS011;7419;52.184;5.944;2023-04-01T02:19:03;2.72;;;1.88;;
14663;SDS011;7419;52.184;5.944;2023-04-01T02:20:04;3.56;;;1.78;;
14663;SDS011;7419;52.184;5.944;2023-04-01T02:21:03;2.33;;;1.46;;
14663;SDS011;7419;52.184;5.944;2023-04-01T02:22:04;3.78;;;1.43;;
14663;SDS011;7419;52.184;5.944;2023-04-01T02:23:03;3.65;;;1.93;;
14663;SDS011;7419;52.184;5.944;2023-04-01T02:24:04;2.72;;;1.51;;
14663;SDS011;7419;52.184;5.944;2023-04-01T02:25:04;4.60;;;1.96;;
14663;SDS011;7419;52.184;5.944;2023-04-01T02:26:04;1.80;;;1.38;;
14663;SDS011;7419;52.184;5.944;2023-04-01T02:27:04;2.71;;;1.78;;
14663;SDS011;7419;52.184;5.944;2023-04-01T02:28:04;2.97;;;1.50;;
14663;SDS011;7419;52.184;5.944;2023-04-01T02:29:04;1.81;;;1.44;;
14663;SDS011;7419;52.184;5.944;2023-04-01T02:30:04;3.19;;;1.15;;
14663;SDS011;7419;52.184;5.944;2023-04-01T02:31:04;2.29;;;1.49;;
14663;SDS011;7419;52.184;5.944;2023-04-01T02:32:04;2.78;;;1.86;;
14663;SDS011;7419;52.184;5.944;2023-04-01T02:33:04;1.96;;;1.49;;
14663;SDS011;7419;52.184;5.944;2023-04-01T02:34:04;1.08;;;0.96;;
14663;SDS011;7419;52.184;5.944;2023-04-01T02:35:05;2.65;;;1.65;;
14663;SDS011;7419;52.184;5.944;2023-04-01T02:36:04;3.01;;;1.65;;
14663;SDS011;7419;52.184;5.944;2023-04-01T02:37:04;2.97;;;1.24;;
14663;SDS011;7419;52.184;5.944;2023-04-01T02:38:04;1.64;;;1.43;;
14663;SDS011;7419;52.184;5.944;2023-04-01T02:39:04;2.41;;;1.38;;
14663;SDS011;7419;52.184;5.944;2023-04-01T02:40:05;1.99;;;1.34;;
14663;SDS011;7419;52.184;5.944;2023-04-01T02:41:04;2.87;;;1.28;;
14663;SDS011;7419;52.184;5.944;2023-04-01T02:42:05;4.17;;;1.34;;
14663;SDS011;7419;52.184;5.944;2023-04-01T02:43:04;1.09;;;1.06;;
14663;SDS011;7419;52.184;5.944;2023-04-01T02:44:05;1.44;;;1.00;;
14663;SDS011;7419;52.184;5.944;2023-04-01T02:45:05;2.30;;;1.39;;
14663;SDS011;7419;52.184;5.944;2023-04-01T02:46:05;2.63;;;1.36;;
14663;SDS011;7419;52.184;5.944;2023-04-01T02:47:05;2.92;;;1.18;;
14663;SDS011;7419;52.184;5.944;2023-04-01T02:48:05;1.56;;;1.16;;
14663;SDS011;7419;52.184;5.944;2023-04-01T02:49:05;2.56;;;1.47;;
14663;SDS011;7419;52.184;5.944;2023-04-01T02:50:06;1.96;;;1.09;;
14663;SDS011;7419;52.184;5.944;2023-04-01T02:51:05;1.43;;;1.18;;
14663;SDS011;7419;52.184;5.944;2023-04-01T02:52:05;5.48;;;1.48;;
14663;SDS011;7419;52.184;5.944;2023-04-01T02:53:05;2.82;;;1.50;;
14663;SDS011;7419;52.184;5.944;2023-04-01T02:54:05;4.10;;;1.41;;
14663;SDS011;7419;52.184;5.944;2023-04-01T02:55:06;2.34;;;1.16;;
14663;SDS011;7419;52.184;5.944;2023-04-01T02:56:05;2.20;;;1.12;;
14663;SDS011;7419;52.184;5.944;2023-04-01T02:57:05;3.69;;;1.25;;
14663;SDS011;7419;52.184;5.944;2023-04-01T02:58:06;3.55;;;1.23;;
14663;SDS011;7419;52.184;5.944;2023-04-01T02:59:06;2.48;;;1.11;;
14663;SDS011;7419;52.184;5.944;2023-04-01T03:00:06;2.25;;;1.18;;
14663;SDS011;7419;52.184;5.944;2023-04-01T03:01:06;1.31;;;1.15;;
14663;SDS011;7419;52.184;5.944;2023-04-01T03:02:06;1.91;;;1.54;;
14663;SDS011;7419;52.184;5.944;2023-04-01T03:03:06;2.83;;;1.35;;
14663;SDS011;7419;52.184;5.944;2023-04-01T03:04:06;1.69;;;0.88;;
14663;SDS011;7419;52.184;5.944;2023-04-01T03:05:06;3.06;;;1.14;;
14663;SDS011;7419;52.184;5.944;2023-04-01T03:06:06;2.15;;;1.40;;
14663;SDS011;7419;52.184;5.944;2023-04-01T03:07:06;2.14;;;1.06;;
14663;SDS011;7419;52.184;5.944;2023-04-01T03:08:06;1.31;;;0.97;;
14663;SDS011;7419;52.184;5.944;2023-04-01T03:09:06;2.85;;;1.15;;
14663;SDS011;7419;52.184;5.944;2023-04-01T03:10:07;2.22;;;0.96;;
14663;SDS011;7419;52.184;5.944;2023-04-01T03:11:06;1.61;;;1.10;;
14663;SDS011;7419;52.184;5.944;2023-04-01T03:12:06;1.60;;;1.44;;
14663;SDS011;7419;52.184;5.944;2023-04-01T03:13:06;2.13;;;0.83;;
14663;SDS011;7419;52.184;5.944;2023-04-01T03:14:07;1.69;;;1.07;;
14663;SDS011;7419;52.184;5.944;2023-04-01T03:15:08;4.84;;;1.07;;
14663;SDS011;7419;52.184;5.944;2023-04-01T03:16:07;2.72;;;0.89;;
14663;SDS011;7419;52.184;5.944;2023-04-01T03:17:07;3.70;;;1.09;;
14663;SDS011;7419;52.184;5.944;2023-04-01T03:18:07;2.99;;;0.77;;
14663;SDS011;7419;52.184;5.944;2023-04-01T03:19:07;0.71;;;0.71;;
14663;SDS011;7419;52.184;5.944;2023-04-01T03:20:07;2.13;;;1.04;;
14663;SDS011;7419;52.184;5.944;2023-04-01T03:21:12;3.69;;;0.71;;
14663;SDS011;7419;52.184;5.944;2023-04-01T03:22:07;1.31;;;0.89;;
14663;SDS011;7419;52.184;5.944;2023-04-01T03:23:07;2.85;;;1.37;;
14663;SDS011;7419;52.184;5.944;2023-04-01T03:24:07;1.92;;;1.39;;
14663;SDS011;7419;52.184;5.944;2023-04-01T03:25:08;1.22;;;0.75;;
14663;SDS011;7419;52.184;5.944;2023-04-01T03:26:07;1.13;;;0.74;;
14663;SDS011;7419;52.184;5.944;2023-04-01T03:27:07;1.75;;;0.82;;
14663;SDS011;7419;52.184;5.944;2023-04-01T03:28:07;2.83;;;0.72;;
14663;SDS011;7419;52.184;5.944;2023-04-01T03:29:07;1.78;;;1.15;;
14663;SDS011;7419;52.184;5.944;2023-04-01T03:30:08;1.19;;;0.65;;
14663;SDS011;7419;52.184;5.944;2023-04-01T03:31:08;1.69;;;1.00;;
14663;SDS011;7419;52.184;5.944;2023-04-01T03:32:08;1.56;;;0.91;;
14663;SDS011;7419;52.184;5.944;2023-04-01T03:33:08;2.66;;;0.83;;
14663;SDS011;7419;52.184;5.944;2023-04-01T03:34:08;2.12;;;1.15;;
14663;SDS011;7419;52.184;5.944;2023-04-01T03:35:08;2.18;;;1.18;;
14663;SDS011;7419;52.184;5.944;2023-04-01T03:36:08;3.26;;;0.94;;
14663;SDS011;7419;52.184;5.944;2023-04-01T03:37:08;1.24;;;0.68;;
14663;SDS011;7419;52.184;5.944;2023-04-01T03:38:08;1.95;;;1.00;;
14663;SDS011;7419;52.184;5.944;2023-04-01T03:39:08;1.14;;;0.64;;
14663;SDS011;7419;52.184;5.944;2023-04-01T03:40:09;4.32;;;1.20;;
14663;SDS011;7419;52.184;5.944;2023-04-01T03:41:11;1.90;;;0.84;;
14663;SDS011;7419;52.184;5.944;2023-04-01T03:42:08;3.41;;;0.81;;
14663;SDS011;7419;52.184;5.944;2023-04-01T03:43:08;1.08;;;0.82;;
14663;SDS011;7419;52.184;5.944;2023-04-01T03:44:08;1.65;;;0.96;;
14663;SDS011;7419;52.184;5.944;2023-04-01T03:45:09;0.47;;;0.44;;
14663;SDS011;7419;52.184;5.944;2023-04-01T03:46:09;1.47;;;0.88;;
14663;SDS011;7419;52.184;5.944;2023-04-01T03:47:09;2.02;;;0.98;;
14663;SDS011;7419;52.184;5.944;2023-04-01T03:48:09;2.25;;;0.77;;
14663;SDS011;7419;52.184;5.944;2023-04-01T03:49:09;2.01;;;0.88;;
14663;SDS011;7419;52.184;5.944;2023-04-01T03:50:09;0.64;;;0.63;;
14663;SDS011;7419;52.184;5.944;2023-04-01T03:51:09;2.29;;;0.86;;
14663;SDS011;7419;52.184;5.944;2023-04-01T03:52:09;4.58;;;1.32;;
14663;SDS011;7419;52.184;5.944;2023-04-01T03:53:09;1.01;;;0.72;;
14663;SDS011;7419;52.184;5.944;2023-04-01T03:54:09;1.14;;;0.91;;
14663;SDS011;7419;52.184;5.944;2023-04-01T03:55:09;0.38;;;0.38;;
14663;SDS011;7419;52.184;5.944;2023-04-01T03:56:09;0.90;;;0.64;;
14663;SDS011;7419;52.184;5.944;2023-04-01T03:57:09;1.92;;;0.67;;
14663;SDS011;7419;52.184;5.944;2023-04-01T03:58:10;0.87;;;0.76;;
14663;SDS011;7419;52.184;5.944;2023-04-01T03:59:09;0.65;;;0.57;;
14663;SDS011;7419;52.184;5.944;2023-04-01T04:00:10;0.74;;;0.65;;
14663;SDS011;7419;52.184;5.944;2023-04-01T04:01:13;3.75;;;0.72;;
14663;SDS011;7419;52.184;5.944;2023-04-01T04:02:09;0.91;;;0.45;;
14663;SDS011;7419;52.184;5.944;2023-04-01T04:03:09;0.83;;;0.75;;
14663;SDS011;7419;52.184;5.944;2023-04-01T04:04:10;1.38;;;0.72;;
14663;SDS011;7419;52.184;5.944;2023-04-01T04:05:10;0.59;;;0.45;;
14663;SDS011;7419;52.184;5.944;2023-04-01T04:06:10;1.02;;;0.58;;
14663;SDS011;7419;52.184;5.944;2023-04-01T04:07:10;1.54;;;0.51;;
14663;SDS011;7419;52.184;5.944;2023-04-01T04:08:10;0.66;;;0.66;;
14663;SDS011;7419;52.184;5.944;2023-04-01T04:09:10;0.68;;;0.61;;
14663;SDS011;7419;52.184;5.944;2023-04-01T04:10:10;1.35;;;0.78;;
14663;SDS011;7419;52.184;5.944;2023-04-01T04:11:10;0.87;;;0.58;;
14663;SDS011;7419;52.184;5.944;2023-04-01T04:12:10;0.56;;;0.56;;
14663;SDS011;7419;52.184;5.944;2023-04-01T04:13:10;0.85;;;0.52;;
14663;SDS011;7419;52.184;5.944;2023-04-01T04:14:10;0.45;;;0.33;;
14663;SDS011;7419;52.184;5.944;2023-04-01T04:15:10;0.93;;;0.59;;
14663;SDS011;7419;52.184;5.944;2023-04-01T04:16:11;1.65;;;0.55;;
14663;SDS011;7419;52.184;5.944;2023-04-01T04:17:10;2.59;;;0.84;;
14663;SDS011;7419;52.184;5.944;2023-04-01T04:18:10;2.24;;;0.56;;
14663;SDS011;7419;52.184;5.944;2023-04-01T04:19:11;3.33;;;0.59;;
14663;SDS011;7419;52.184;5.944;2023-04-01T04:20:11;1.41;;;0.63;;
14663;SDS011;7419;52.184;5.944;2023-04-01T04:21:11;1.31;;;0.54;;
14663;SDS011;7419;52.184;5.944;2023-04-01T04:22:11;1.80;;;0.67;;
14663;SDS011;7419;52.184;5.944;2023-04-01T04:23:11;2.21;;;0.58;;
14663;SDS011;7419;52.184;5.944;2023-04-01T04:24:11;1.34;;;0.70;;
14663;SDS011;7419;52.184;5.944;2023-04-01T04:25:11;1.75;;;0.73;;
14663;SDS011;7419;52.184;5.944;2023-04-01T04:26:12;1.08;;;0.72;;
14663;SDS011;7419;52.184;5.944;2023-04-01T04:27:11;3.32;;;0.53;;
14663;SDS011;7419;52.184;5.944;2023-04-01T04:28:11;0.80;;;0.62;;
14663;SDS011;7419;52.184;5.944;2023-04-01T04:29:11;1.23;;;0.59;;
14663;SDS011;7419;52.184;5.944;2023-04-01T04:30:11;0.80;;;0.61;;
14663;SDS011;7419;52.184;5.944;2023-04-01T04:31:12;2.76;;;0.84;;
14663;SDS011;7419;52.184;5.944;2023-04-01T04:32:11;0.74;;;0.74;;
14663;SDS011;7419;52.184;5.944;2023-04-01T04:33:11;0.66;;;0.66;;
14663;SDS011;7419;52.184;5.944;2023-04-01T04:34:11;0.87;;;0.51;;
14663;SDS011;7419;52.184;5.944;2023-04-01T04:35:12;0.46;;;0.35;;
14663;SDS011;7419;52.184;5.944;2023-04-01T04:36:12;1.30;;;0.47;;
14663;SDS011;7419;52.184;5.944;2023-04-01T04:37:12;0.50;;;0.42;;
14663;SDS011;7419;52.184;5.944;2023-04-01T04:38:12;0.78;;;0.62;;
14663;SDS011;7419;52.184;5.944;2023-04-01T04:39:12;0.73;;;0.68;;
14663;SDS011;7419;52.184;5.944;2023-04-01T04:40:12;1.53;;;0.58;;
14663;SDS011;7419;52.184;5.944;2023-04-01T04:41:12;1.21;;;0.48;;
14663;SDS011;7419;52.184;5.944;2023-04-01T04:42:12;2.49;;;0.89;;
14663;SDS011;7419;52.184;5.944;2023-04-01T04:43:13;0.53;;;0.51;;
14663;SDS011;7419;52.184;5.944;2023-04-01T04:44:12;0.59;;;0.42;;
14663;SDS011;7419;52.184;5.944;2023-04-01T04:45:12;0.77;;;0.45;;
14663;SDS011;7419;52.184;5.944;2023-04-01T04:46:12;1.07;;;0.57;;
14663;SDS011;7419;52.184;5.944;2023-04-01T04:47:12;0.74;;;0.70;;
14663;SDS011;7419;52.184;5.944;2023-04-01T04:48:13;1.43;;;0.58;;
14663;SDS011;7419;52.184;5.944;2023-04-01T04:49:13;2.27;;;0.80;;
14663;SDS011;7419;52.184;5.944;2023-04-01T04:50:13;0.81;;;0.69;;
14663;SDS011;7419;52.184;5.944;2023-04-01T04:51:13;0.64;;;0.61;;
14663;SDS011;7419;52.184;5.944;2023-04-01T04:52:13;0.96;;;0.55;;
14663;SDS011;7419;52.184;5.944;2023-04-01T04:53:13;1.61;;;0.91;;
14663;SDS011;7419;52.184;5.944;2023-04-01T04:54:13;0.85;;;0.81;;
14663;SDS011;7419;52.184;5.944;2023-04-01T04:55:13;2.17;;;0.73;;
14663;SDS011;7419;52.184;5.944;2023-04-01T04:56:17;0.85;;;0.48;;
14663;SDS011;7419;52.184;5.944;2023-04-01T04:57:13;0.57;;;0.57;;
14663;SDS011;7419;52.184;5.944;2023-04-01T04:58:13;1.64;;;0.84;;
14663;SDS011;7419;52.184;5.944;2023-04-01T04:59:13;0.74;;;0.64;;
14663;SDS011;7419;52.184;5.944;2023-04-01T05:00:13;0.64;;;0.64;;
14663;SDS011;7419;52.184;5.944;2023-04-01T05:01:14;1.81;;;0.67;;
14663;SDS011;7419;52.184;5.944;2023-04-01T05:02:13;1.15;;;0.56;;
14663;SDS011;7419;52.184;5.944;2023-04-01T05:03:14;1.04;;;0.96;;
14663;SDS011;7419;52.184;5.944;2023-04-01T05:04:14;2.64;;;0.81;;
14663;SDS011;7419;52.184;5.944;2023-04-01T05:05:14;1.33;;;0.91;;
14663;SDS011;7419;52.184;5.944;2023-04-01T05:06:14;1.10;;;0.80;;
14663;SDS011;7419;52.184;5.944;2023-04-01T05:07:14;1.29;;;0.97;;
14663;SDS011;7419;52.184;5.944;2023-04-01T05:08:14;1.12;;;0.70;;
14663;SDS011;7419;52.184;5.944;2023-04-01T05:09:21;1.77;;;0.96;;
14663;SDS011;7419;52.184;5.944;2023-04-01T05:10:14;1.09;;;0.82;;
14663;SDS011;7419;52.184;5.944;2023-04-01T05:11:14;1.32;;;1.17;;
14663;SDS011;7419;52.184;5.944;2023-04-01T05:12:14;0.75;;;0.75;;
14663;SDS011;7419;52.184;5.944;2023-04-01T05:13:14;1.46;;;1.03;;
14663;SDS011;7419;52.184;5.944;2023-04-01T05:14:14;1.13;;;0.86;;
14663;SDS011;7419;52.184;5.944;2023-04-01T05:15:14;1.67;;;1.20;;
14663;SDS011;7419;52.184;5.944;2023-04-01T05:16:15;1.38;;;1.02;;
14663;SDS011;7419;52.184;5.944;2023-04-01T05:17:14;1.25;;;1.06;;
14663;SDS011;7419;52.184;5.944;2023-04-01T05:18:14;1.80;;;1.13;;
14663;SDS011;7419;52.184;5.944;2023-04-01T05:19:14;2.29;;;1.22;;
14663;SDS011;7419;52.184;5.944;2023-04-01T05:20:15;1.37;;;0.95;;
14663;SDS011;7419;52.184;5.944;2023-04-01T05:21:14;2.04;;;1.42;;
14663;SDS011;7419;52.184;5.944;2023-04-01T05:22:15;1.32;;;1.19;;
14663;SDS011;7419;52.184;5.944;2023-04-01T05:23:15;1.25;;;1.06;;
14663;SDS011;7419;52.184;5.944;2023-04-01T05:24:15;1.34;;;1.23;;
14663;SDS011;7419;52.184;5.944;2023-04-01T05:25:15;3.50;;;1.68;;
14663;SDS011;7419;52.184;5.944;2023-04-01T05:27:15;1.63;;;1.30;;
14663;SDS011;7419;52.184;5.944;2023-04-01T05:28:15;2.32;;;1.40;;
14663;SDS011;7419;52.184;5.944;2023-04-01T05:29:15;3.04;;;1.06;;
14663;SDS011;7419;52.184;5.944;2023-04-01T05:30:15;1.57;;;1.16;;
14663;SDS011;7419;52.184;5.944;2023-04-01T05:31:15;2.52;;;1.12;;
14663;SDS011;7419;52.184;5.944;2023-04-01T05:32:15;1.48;;;1.06;;
14663;SDS011;7419;52.184;5.944;2023-04-01T05:33:15;4.12;;;1.35;;
14663;SDS011;7419;52.184;5.944;2023-04-01T05:34:16;2.00;;;1.70;;
14663;SDS011;7419;52.184;5.944;2023-04-01T05:35:15;2.88;;;1.18;;
14663;SDS011;7419;52.184;5.944;2023-04-01T05:36:16;1.60;;;1.18;;
14663;SDS011;7419;52.184;5.944;2023-04-01T05:37:15;2.63;;;1.62;;
14663;SDS011;7419;52.184;5.944;2023-04-01T05:38:16;2.01;;;1.29;;
14663;SDS011;7419;52.184;5.944;2023-04-01T05:39:16;2.63;;;1.36;;
14663;SDS011;7419;52.184;5.944;2023-04-01T05:40:16;1.36;;;1.17;;
14663;SDS011;7419;52.184;5.944;2023-04-01T05:41:16;2.18;;;1.55;;
14663;SDS011;7419;52.184;5.944;2023-04-01T05:42:16;2.45;;;1.66;;
14663;SDS011;7419;52.184;5.944;2023-04-01T05:43:16;2.17;;;1.61;;
14663;SDS011;7419;52.184;5.944;2023-04-01T05:44:16;2.65;;;1.51;;
14663;SDS011;7419;52.184;5.944;2023-04-01T05:45:16;2.19;;;1.81;;
14663;SDS011;7419;52.184;5.944;2023-04-01T05:46:16;1.90;;;1.66;;
14663;SDS011;7419;52.184;5.944;2023-04-01T05:47:16;4.02;;;1.78;;
14663;SDS011;7419;52.184;5.944;2023-04-01T05:48:16;3.48;;;1.54;;
14663;SDS011;7419;52.184;5.944;2023-04-01T05:49:16;2.83;;;1.68;;
14663;SDS011;7419;52.184;5.944;2023-04-01T05:50:16;1.71;;;1.60;;
14663;SDS011;7419;52.184;5.944;2023-04-01T05:51:16;2.10;;;1.45;;
14663;SDS011;7419;52.184;5.944;2023-04-01T05:52:16;2.47;;;1.92;;
14663;SDS011;7419;52.184;5.944;2023-04-01T05:53:17;2.54;;;1.60;;
14663;SDS011;7419;52.184;5.944;2023-04-01T05:54:16;2.43;;;1.53;;
14663;SDS011;7419;52.184;5.944;2023-04-01T05:55:17;2.50;;;1.78;;
14663;SDS011;7419;52.184;5.944;2023-04-01T05:56:17;2.54;;;1.67;;
14663;SDS011;7419;52.184;5.944;2023-04-01T05:57:17;2.69;;;1.93;;
14663;SDS011;7419;52.184;5.944;2023-04-01T05:58:17;2.57;;;1.85;;
14663;SDS011;7419;52.184;5.944;2023-04-01T05:59:17;2.30;;;1.90;;
14663;SDS011;7419;52.184;5.944;2023-04-01T06:00:17;3.01;;;2.27;;
14663;SDS011;7419;52.184;5.944;2023-04-01T06:01:17;2.85;;;1.91;;
14663;SDS011;7419;52.184;5.944;2023-04-01T06:02:17;2.27;;;1.81;;
14663;SDS011;7419;52.184;5.944;2023-04-01T06:03:17;2.36;;;1.93;;
14663;SDS011;7419;52.184;5.944;2023-04-01T06:04:17;2.38;;;1.90;;
14663;SDS011;7419;52.184;5.944;2023-04-01T06:05:19;1.79;;;1.54;;
14663;SDS011;7419;52.184;5.944;2023-04-01T06:06:19;2.72;;;2.12;;
14663;SDS011;7419;52.184;5.944;2023-04-01T06:07:18;2.88;;;2.07;;
14663;SDS011;7419;52.184;5.944;2023-04-01T06:08:18;2.22;;;1.61;;
14663;SDS011;7419;52.184;5.944;2023-04-01T06:09:18;2.18;;;1.84;;
14663;SDS011;7419;52.184;5.944;2023-04-01T06:10:19;2.48;;;2.07;;